sensor_id;sensor_type;location;lat;lon;timestamp;temperature;humidity
584;HTU21D;27024;54.068;12.116;2023-02-28T00:01:28;-0.29;114.38
584;HTU21D;27024;54.068;12.116;2023-02-28T00:03:55;-0.31;114.16
584;HTU21D;27024;54.068;12.116;2023-02-28T00:06:23;-0.38;114.22
584;HTU21D;27024;54.068;12.116;2023-02-28T00:08:50;-0.43;114.67
584;HTU21D;27024;54.068;12.116;2023-02-28T00:11:17;-0.39;114.45
584;HTU21D;27024;54.068;12.116;2023-02-28T00:13:45;-0.41;114.54
584;HTU21D;27024;54.068;12.116;2023-02-28T00:16:18;-0.41;114.64
584;HTU21D;27024;54.068;12.116;2023-02-28T00:18:46;-0.39;114.56
584;HTU21D;27024;54.068;12.116;2023-02-28T00:21:15;-0.30;113.87
584;HTU21D;27024;54.068;12.116;2023-02-28T00:23:41;-0.40;113.97
584;HTU21D;27024;54.068;12.116;2023-02-28T00:26:25;-0.53;114.38
584;HTU21D;27024;54.068;12.116;2023-02-28T00:28:55;-0.60;114.75
584;HTU21D;27024;54.068;12.116;2023-02-28T00:31:22;-0.60;114.84
584;HTU21D;27024;54.068;12.116;2023-02-28T00:33:49;-0.57;114.67
584;HTU21D;27024;54.068;12.116;2023-02-28T00:36:17;-0.47;114.29
584;HTU21D;27024;54.068;12.116;2023-02-28T00:38:44;-0.49;114.16
584;HTU21D;27024;54.068;12.116;2023-02-28T00:41:10;-0.52;113.90
584;HTU21D;27024;54.068;12.116;2023-02-28T00:43:38;-0.59;114.58
584;HTU21D;27024;54.068;12.116;2023-02-28T00:46:07;-0.72;114.86
584;HTU21D;27024;54.068;12.116;2023-02-28T00:48:33;-0.68;115.14
584;HTU21D;27024;54.068;12.116;2023-02-28T00:51:00;-0.61;114.88
584;HTU21D;27024;54.068;12.116;2023-02-28T00:53:28;-0.56;114.23
584;HTU21D;27024;54.068;12.116;2023-02-28T00:55:55;-0.55;114.20
584;HTU21D;27024;54.068;12.116;2023-02-28T00:58:22;-0.58;114.17
584;HTU21D;27024;54.068;12.116;2023-02-28T01:00:50;-0.56;114.05
584;HTU21D;27024;54.068;12.116;2023-02-28T01:03:18;-0.71;113.64
584;HTU21D;27024;54.068;12.116;2023-02-28T01:05:46;-0.74;114.28
584;HTU21D;27024;54.068;12.116;2023-02-28T01:08:13;-0.82;114.88
584;HTU21D;27024;54.068;12.116;2023-02-28T01:10:40;-0.82;114.94
584;HTU21D;27024;54.068;12.116;2023-02-28T01:13:07;-0.83;114.89
584;HTU21D;27024;54.068;12.116;2023-02-28T01:15:34;-0.75;114.83
584;HTU21D;27024;54.068;12.116;2023-02-28T01:18:01;-0.75;114.82
584;HTU21D;27024;54.068;12.116;2023-02-28T01:20:28;-0.77;114.40
584;HTU21D;27024;54.068;12.116;2023-02-28T01:22:55;-0.95;114.61
584;HTU21D;27024;54.068;12.116;2023-02-28T01:25:21;-0.88;114.90
584;HTU21D;27024;54.068;12.116;2023-02-28T01:27:49;-0.86;114.50
584;HTU21D;27024;54.068;12.116;2023-02-28T01:30:16;-0.87;114.30
584;HTU21D;27024;54.068;12.116;2023-02-28T01:32:43;-0.91;114.14
584;HTU21D;27024;54.068;12.116;2023-02-28T01:35:10;-1.06;114.81
584;HTU21D;27024;54.068;12.116;2023-02-28T01:37:36;-1.02;114.89
584;HTU21D;27024;54.068;12.116;2023-02-28T01:40:03;-0.99;114.46
584;HTU21D;27024;54.068;12.116;2023-02-28T01:42:30;-1.10;114.43
584;HTU21D;27024;54.068;12.116;2023-02-28T01:47:33;-1.28;115.09
584;HTU21D;27024;54.068;12.116;2023-02-28T01:50:04;-1.23;115.11
584;HTU21D;27024;54.068;12.116;2023-02-28T01:52:32;-1.30;115.43
584;HTU21D;27024;54.068;12.116;2023-02-28T01:55:01;-1.31;115.23
584;HTU21D;27024;54.068;12.116;2023-02-28T01:57:32;-1.17;114.89
584;HTU21D;27024;54.068;12.116;2023-02-28T02:00:08;-1.27;114.90
584;HTU21D;27024;54.068;12.116;2023-02-28T02:02:37;-1.36;115.15
584;HTU21D;27024;54.068;12.116;2023-02-28T02:05:10;-1.41;115.32
584;HTU21D;27024;54.068;12.116;2023-02-28T02:07:41;-1.41;115.03
584;HTU21D;27024;54.068;12.116;2023-02-28T02:10:16;-1.45;115.03
584;HTU21D;27024;54.068;12.116;2023-02-28T02:18:53;-1.49;115.19
584;HTU21D;27024;54.068;12.116;2023-02-28T02:32:02;-1.47;115.44
584;HTU21D;27024;54.068;12.116;2023-02-28T02:37:14;-1.43;115.86
584;HTU21D;27024;54.068;12.116;2023-02-28T02:39:53;-1.42;116.02
584;HTU21D;27024;54.068;12.116;2023-02-28T02:42:51;-1.39;115.64
584;HTU21D;27024;54.068;12.116;2023-02-28T02:45:24;-1.40;115.39
584;HTU21D;27024;54.068;12.116;2023-02-28T02:47:51;-1.44;115.88
584;HTU21D;27024;54.068;12.116;2023-02-28T02:50:30;-1.40;115.73
584;HTU21D;27024;54.068;12.116;2023-02-28T02:53:00;-1.36;115.64
584;HTU21D;27024;54.068;12.116;2023-02-28T02:55:28;-1.41;115.58
584;HTU21D;27024;54.068;12.116;2023-02-28T02:58:02;-1.52;115.72
584;HTU21D;27024;54.068;12.116;2023-02-28T03:00:39;-1.64;116.01
584;HTU21D;27024;54.068;12.116;2023-02-28T03:03:10;-1.68;115.80
584;HTU21D;27024;54.068;12.116;2023-02-28T03:05:50;-1.69;115.51
584;HTU21D;27024;54.068;12.116;2023-02-28T03:08:17;-1.74;115.39
584;HTU21D;27024;54.068;12.116;2023-02-28T03:10:48;-1.79;115.37
584;HTU21D;27024;54.068;12.116;2023-02-28T03:19:02;-1.73;115.70
584;HTU21D;27024;54.068;12.116;2023-02-28T03:26:45;-1.74;115.52
584;HTU21D;27024;54.068;12.116;2023-02-28T03:29:29;-1.63;115.42
584;HTU21D;27024;54.068;12.116;2023-02-28T03:32:13;-1.64;115.19
584;HTU21D;27024;54.068;12.116;2023-02-28T03:35:19;-1.78;115.12
584;HTU21D;27024;54.068;12.116;2023-02-28T03:37:41;-1.86;115.24
584;HTU21D;27024;54.068;12.116;2023-02-28T03:40:13;-1.97;115.22
584;HTU21D;27024;54.068;12.116;2023-02-28T03:42:43;-2.04;115.77
584;HTU21D;27024;54.068;12.116;2023-02-28T03:45:25;-1.87;115.99
584;HTU21D;27024;54.068;12.116;2023-02-28T03:47:53;-1.89;115.50
584;HTU21D;27024;54.068;12.116;2023-02-28T03:50:45;-1.87;115.33
584;HTU21D;27024;54.068;12.116;2023-02-28T03:53:34;-1.90;115.41
584;HTU21D;27024;54.068;12.116;2023-02-28T03:56:17;-1.99;115.54
584;HTU21D;27024;54.068;12.116;2023-02-28T03:58:51;-1.95;115.83
584;HTU21D;27024;54.068;12.116;2023-02-28T04:01:47;-1.97;116.12
584;HTU21D;27024;54.068;12.116;2023-02-28T04:04:15;-1.98;116.38
584;HTU21D;27024;54.068;12.116;2023-02-28T04:06:43;-1.90;116.73
584;HTU21D;27024;54.068;12.116;2023-02-28T04:09:13;-1.82;116.78
584;HTU21D;27024;54.068;12.116;2023-02-28T04:11:43;-1.82;116.89
584;HTU21D;27024;54.068;12.116;2023-02-28T04:14:11;-1.80;116.69
584;HTU21D;27024;54.068;12.116;2023-02-28T04:16:40;-2.03;116.89
584;HTU21D;27024;54.068;12.116;2023-02-28T04:19:09;-2.02;116.66
584;HTU21D;27024;54.068;12.116;2023-02-28T04:21:42;-2.06;116.15
584;HTU21D;27024;54.068;12.116;2023-02-28T04:24:11;-2.06;116.34
584;HTU21D;27024;54.068;12.116;2023-02-28T04:26:43;-2.07;115.84
584;HTU21D;27024;54.068;12.116;2023-02-28T04:29:12;-2.18;116.04
584;HTU21D;27024;54.068;12.116;2023-02-28T04:31:40;-2.09;116.83
584;HTU21D;27024;54.068;12.116;2023-02-28T04:34:07;-1.98;116.69
584;HTU21D;27024;54.068;12.116;2023-02-28T04:36:34;-2.00;116.30
584;HTU21D;27024;54.068;12.116;2023-02-28T04:39:01;-2.05;116.25
584;HTU21D;27024;54.068;12.116;2023-02-28T04:41:28;-2.20;116.14
584;HTU21D;27024;54.068;12.116;2023-02-28T04:43:58;-2.19;116.47
584;HTU21D;27024;54.068;12.116;2023-02-28T04:46:25;-2.03;116.60
584;HTU21D;27024;54.068;12.116;2023-02-28T04:48:52;-2.07;117.39
584;HTU21D;27024;54.068;12.116;2023-02-28T04:51:20;-2.32;116.73
584;HTU21D;27024;54.068;12.116;2023-02-28T04:53:48;-2.26;116.22
584;HTU21D;27024;54.068;12.116;2023-02-28T04:56:16;-2.41;115.98
584;HTU21D;27024;54.068;12.116;2023-02-28T04:58:44;-2.38;116.07
584;HTU21D;27024;54.068;12.116;2023-02-28T05:01:21;-2.43;115.88
584;HTU21D;27024;54.068;12.116;2023-02-28T05:03:48;-2.36;115.61
584;HTU21D;27024;54.068;12.116;2023-02-28T05:06:16;-2.38;115.75
584;HTU21D;27024;54.068;12.116;2023-02-28T05:08:43;-2.38;115.86
584;HTU21D;27024;54.068;12.116;2023-02-28T05:13:42;-2.28;116.65
584;HTU21D;27024;54.068;12.116;2023-02-28T05:16:08;-2.32;116.94
584;HTU21D;27024;54.068;12.116;2023-02-28T05:18:36;-1.63;118.99
584;HTU21D;27024;54.068;12.116;2023-02-28T05:21:03;-1.91;117.77
584;HTU21D;27024;54.068;12.116;2023-02-28T05:23:30;-2.19;117.60
584;HTU21D;27024;54.068;12.116;2023-02-28T05:25:56;-2.19;117.37
584;HTU21D;27024;54.068;12.116;2023-02-28T05:28:23;-2.19;117.10
584;HTU21D;27024;54.068;12.116;2023-02-28T05:30:50;-2.29;117.03
584;HTU21D;27024;54.068;12.116;2023-02-28T05:33:17;-2.31;117.22
584;HTU21D;27024;54.068;12.116;2023-02-28T05:35:45;-2.29;116.89
584;HTU21D;27024;54.068;12.116;2023-02-28T05:38:12;-2.48;116.32
584;HTU21D;27024;54.068;12.116;2023-02-28T05:40:39;-2.59;115.87
584;HTU21D;27024;54.068;12.116;2023-02-28T05:43:10;-2.72;115.89
584;HTU21D;27024;54.068;12.116;2023-02-28T05:45:37;-2.86;116.44
584;HTU21D;27024;54.068;12.116;2023-02-28T05:48:04;-2.71;116.18
584;HTU21D;27024;54.068;12.116;2023-02-28T05:50:31;-2.75;115.75
584;HTU21D;27024;54.068;12.116;2023-02-28T05:52:58;-2.73;115.81
584;HTU21D;27024;54.068;12.116;2023-02-28T05:55:24;-2.69;115.60
584;HTU21D;27024;54.068;12.116;2023-02-28T05:57:51;-0.79;118.99
584;HTU21D;27024;54.068;12.116;2023-02-28T06:00:19;-0.37;114.90
584;HTU21D;27024;54.068;12.116;2023-02-28T06:02:46;-1.89;115.51
584;HTU21D;27024;54.068;12.116;2023-02-28T06:05:15;-2.22;116.22
584;HTU21D;27024;54.068;12.116;2023-02-28T06:07:43;-2.33;117.30
584;HTU21D;27024;54.068;12.116;2023-02-28T06:10:11;-2.30;117.84
584;HTU21D;27024;54.068;12.116;2023-02-28T06:12:38;-2.31;117.49
584;HTU21D;27024;54.068;12.116;2023-02-28T06:15:06;-2.48;117.18
584;HTU21D;27024;54.068;12.116;2023-02-28T06:17:33;-2.58;117.00
584;HTU21D;27024;54.068;12.116;2023-02-28T06:20:00;-2.43;117.64
584;HTU21D;27024;54.068;12.116;2023-02-28T06:22:27;-1.95;118.99
584;HTU21D;27024;54.068;12.116;2023-02-28T06:24:53;-1.97;116.64
584;HTU21D;27024;54.068;12.116;2023-02-28T06:27:21;-2.41;115.93
584;HTU21D;27024;54.068;12.116;2023-02-28T06:29:48;-2.54;115.88
584;HTU21D;27024;54.068;12.116;2023-02-28T06:32:15;-2.29;117.30
584;HTU21D;27024;54.068;12.116;2023-02-28T06:34:42;-2.20;116.59
584;HTU21D;27024;54.068;12.116;2023-02-28T06:37:08;-2.44;115.21
584;HTU21D;27024;54.068;12.116;2023-02-28T06:39:35;-2.47;115.80
584;HTU21D;27024;54.068;12.116;2023-02-28T06:42:03;-2.41;115.86
584;HTU21D;27024;54.068;12.116;2023-02-28T06:44:29;-2.30;115.64
584;HTU21D;27024;54.068;12.116;2023-02-28T06:47:02;-2.27;116.22
584;HTU21D;27024;54.068;12.116;2023-02-28T06:49:32;-2.08;116.79
584;HTU21D;27024;54.068;12.116;2023-02-28T06:51:59;-2.01;116.56
584;HTU21D;27024;54.068;12.116;2023-02-28T06:54:26;-2.09;116.25
584;HTU21D;27024;54.068;12.116;2023-02-28T06:56:54;-2.07;116.08
584;HTU21D;27024;54.068;12.116;2023-02-28T06:59:20;-2.02;116.67
584;HTU21D;27024;54.068;12.116;2023-02-28T07:01:47;-1.90;117.09
584;HTU21D;27024;54.068;12.116;2023-02-28T07:04:15;-1.73;116.92
584;HTU21D;27024;54.068;12.116;2023-02-28T07:06:42;-1.72;116.54
584;HTU21D;27024;54.068;12.116;2023-02-28T07:09:10;-1.67;117.22
584;HTU21D;27024;54.068;12.116;2023-02-28T07:11:37;-1.54;117.01
584;HTU21D;27024;54.068;12.116;2023-02-28T07:14:04;-1.44;116.57
584;HTU21D;27024;54.068;12.116;2023-02-28T07:16:30;-1.57;115.96
584;HTU21D;27024;54.068;12.116;2023-02-28T07:18:57;-1.71;116.06
584;HTU21D;27024;54.068;12.116;2023-02-28T07:21:24;-1.60;116.43
584;HTU21D;27024;54.068;12.116;2023-02-28T07:23:51;-1.41;115.83
584;HTU21D;27024;54.068;12.116;2023-02-28T07:26:19;-1.34;115.31
584;HTU21D;27024;54.068;12.116;2023-02-28T07:28:47;-1.15;115.25
584;HTU21D;27024;54.068;12.116;2023-02-28T07:31:15;-1.00;114.74
584;HTU21D;27024;54.068;12.116;2023-02-28T07:33:42;-0.98;114.60
584;HTU21D;27024;54.068;12.116;2023-02-28T07:36:13;-0.71;114.30
584;HTU21D;27024;54.068;12.116;2023-02-28T07:38:42;-0.32;113.20
584;HTU21D;27024;54.068;12.116;2023-02-28T07:41:13;-0.19;112.95
584;HTU21D;27024;54.068;12.116;2023-02-28T07:43:40;-0.06;113.22
584;HTU21D;27024;54.068;12.116;2023-02-28T07:46:12;0.06;112.89
584;HTU21D;27024;54.068;12.116;2023-02-28T07:48:42;0.31;112.06
584;HTU21D;27024;54.068;12.116;2023-02-28T07:51:09;0.40;111.52
584;HTU21D;27024;54.068;12.116;2023-02-28T07:53:36;0.54;111.07
584;HTU21D;27024;54.068;12.116;2023-02-28T07:56:03;0.73;110.37
584;HTU21D;27024;54.068;12.116;2023-02-28T07:58:30;0.92;110.37
584;HTU21D;27024;54.068;12.116;2023-02-28T08:01:05;1.08;109.25
584;HTU21D;27024;54.068;12.116;2023-02-28T08:03:33;1.27;108.52
584;HTU21D;27024;54.068;12.116;2023-02-28T08:06:00;1.40;107.37
584;HTU21D;27024;54.068;12.116;2023-02-28T08:08:28;1.60;105.68
584;HTU21D;27024;54.068;12.116;2023-02-28T08:10:59;1.80;104.31
584;HTU21D;27024;54.068;12.116;2023-02-28T08:13:30;1.99;103.88
584;HTU21D;27024;54.068;12.116;2023-02-28T08:15:57;2.22;101.89
584;HTU21D;27024;54.068;12.116;2023-02-28T08:18:24;2.34;101.57
584;HTU21D;27024;54.068;12.116;2023-02-28T08:20:51;2.56;100.81
584;HTU21D;27024;54.068;12.116;2023-02-28T08:23:18;2.79;99.67
584;HTU21D;27024;54.068;12.116;2023-02-28T08:25:45;3.20;96.71
584;HTU21D;27024;54.068;12.116;2023-02-28T08:28:18;3.60;94.45
584;HTU21D;27024;54.068;12.116;2023-02-28T08:30:45;3.91;93.24
584;HTU21D;27024;54.068;12.116;2023-02-28T08:33:12;4.23;92.09
584;HTU21D;27024;54.068;12.116;2023-02-28T08:35:39;4.67;89.90
584;HTU21D;27024;54.068;12.116;2023-02-28T08:38:06;4.63;90.22
584;HTU21D;27024;54.068;12.116;2023-02-28T08:40:33;4.83;89.36
584;HTU21D;27024;54.068;12.116;2023-02-28T08:43:00;5.18;87.70
584;HTU21D;27024;54.068;12.116;2023-02-28T08:45:27;5.17;86.38
584;HTU21D;27024;54.068;12.116;2023-02-28T08:47:54;5.60;84.19
584;HTU21D;27024;54.068;12.116;2023-02-28T08:50:22;5.90;81.49
584;HTU21D;27024;54.068;12.116;2023-02-28T08:52:49;5.69;83.05
584;HTU21D;27024;54.068;12.116;2023-02-28T08:55:16;5.95;81.65
584;HTU21D;27024;54.068;12.116;2023-02-28T08:57:43;6.31;80.26
584;HTU21D;27024;54.068;12.116;2023-02-28T09:00:11;6.55;78.43
584;HTU21D;27024;54.068;12.116;2023-02-28T09:02:40;6.91;76.27
584;HTU21D;27024;54.068;12.116;2023-02-28T09:05:10;7.44;72.48
584;HTU21D;27024;54.068;12.116;2023-02-28T09:07:36;7.52;72.41
584;HTU21D;27024;54.068;12.116;2023-02-28T09:10:04;7.85;68.41
584;HTU21D;27024;54.068;12.116;2023-02-28T09:12:34;8.21;66.76
584;HTU21D;27024;54.068;12.116;2023-02-28T09:15:02;8.22;67.68
584;HTU21D;27024;54.068;12.116;2023-02-28T09:17:29;8.39;65.05
584;HTU21D;27024;54.068;12.116;2023-02-28T09:19:57;8.68;64.12
584;HTU21D;27024;54.068;12.116;2023-02-28T09:22:24;8.78;62.64
584;HTU21D;27024;54.068;12.116;2023-02-28T09:24:51;9.45;60.35
584;HTU21D;27024;54.068;12.116;2023-02-28T09:27:18;9.96;56.99
584;HTU21D;27024;54.068;12.116;2023-02-28T09:29:45;9.74;56.23
584;HTU21D;27024;54.068;12.116;2023-02-28T09:32:12;9.80;55.58
584;HTU21D;27024;54.068;12.116;2023-02-28T09:34:39;10.18;54.94
584;HTU21D;27024;54.068;12.116;2023-02-28T09:37:06;10.66;52.10
584;HTU21D;27024;54.068;12.116;2023-02-28T09:39:33;10.84;51.69
584;HTU21D;27024;54.068;12.116;2023-02-28T09:42:02;10.55;52.43
584;HTU21D;27024;54.068;12.116;2023-02-28T09:44:35;10.63;51.75
584;HTU21D;27024;54.068;12.116;2023-02-28T09:47:29;10.96;49.78
584;HTU21D;27024;54.068;12.116;2023-02-28T09:49:59;11.49;47.19
584;HTU21D;27024;54.068;12.116;2023-02-28T09:52:31;11.47;47.15
584;HTU21D;27024;54.068;12.116;2023-02-28T09:55:39;11.49;48.13
584;HTU21D;27024;54.068;12.116;2023-02-28T10:00:54;11.51;47.05
584;HTU21D;27024;54.068;12.116;2023-02-28T10:03:55;12.15;44.61
584;HTU21D;27024;54.068;12.116;2023-02-28T10:06:29;11.71;46.28
584;HTU21D;27024;54.068;12.116;2023-02-28T10:09:07;11.81;45.08
584;HTU21D;27024;54.068;12.116;2023-02-28T10:11:38;11.91;44.73
584;HTU21D;27024;54.068;12.116;2023-02-28T10:14:21;11.92;45.34
584;HTU21D;27024;54.068;12.116;2023-02-28T10:17:02;11.75;45.45
584;HTU21D;27024;54.068;12.116;2023-02-28T10:19:31;11.76;46.12
584;HTU21D;27024;54.068;12.116;2023-02-28T10:22:12;11.49;44.42
584;HTU21D;27024;54.068;12.116;2023-02-28T10:24:44;12.08;43.89
584;HTU21D;27024;54.068;12.116;2023-02-28T10:27:23;12.45;43.35
584;HTU21D;27024;54.068;12.116;2023-02-28T10:29:56;12.44;42.91
584;HTU21D;27024;54.068;12.116;2023-02-28T10:32:32;12.32;42.13
584;HTU21D;27024;54.068;12.116;2023-02-28T10:35:01;11.78;44.12
584;HTU21D;27024;54.068;12.116;2023-02-28T10:37:32;12.31;41.25
584;HTU21D;27024;54.068;12.116;2023-02-28T10:40:06;12.20;41.09
584;HTU21D;27024;54.068;12.116;2023-02-28T10:42:34;11.54;42.11
584;HTU21D;27024;54.068;12.116;2023-02-28T10:45:09;10.97;44.14
584;HTU21D;27024;54.068;12.116;2023-02-28T10:47:49;10.96;44.45
584;HTU21D;27024;54.068;12.116;2023-02-28T10:53:21;11.34;44.16
584;HTU21D;27024;54.068;12.116;2023-02-28T10:56:25;11.28;42.71
584;HTU21D;27024;54.068;12.116;2023-02-28T11:01:41;11.88;41.34
584;HTU21D;27024;54.068;12.116;2023-02-28T11:07:00;12.21;37.04
584;HTU21D;27024;54.068;12.116;2023-02-28T11:09:31;12.34;35.82
584;HTU21D;27024;54.068;12.116;2023-02-28T11:12:01;12.22;36.05
584;HTU21D;27024;54.068;12.116;2023-02-28T11:14:31;12.49;34.65
584;HTU21D;27024;54.068;12.116;2023-02-28T11:17:21;13.01;35.98
584;HTU21D;27024;54.068;12.116;2023-02-28T11:19:58;13.37;34.41
584;HTU21D;27024;54.068;12.116;2023-02-28T11:22:29;14.11;30.28
584;HTU21D;27024;54.068;12.116;2023-02-28T11:25:01;13.94;32.28
584;HTU21D;27024;54.068;12.116;2023-02-28T11:29:57;14.00;29.09
584;HTU21D;27024;54.068;12.116;2023-02-28T11:32:28;14.54;31.94
584;HTU21D;27024;54.068;12.116;2023-02-28T11:37:38;15.12;30.78
584;HTU21D;27024;54.068;12.116;2023-02-28T11:40:17;14.78;31.06
584;HTU21D;27024;54.068;12.116;2023-02-28T11:50:26;14.68;30.40
584;HTU21D;27024;54.068;12.116;2023-02-28T11:53:14;14.98;31.12
584;HTU21D;27024;54.068;12.116;2023-02-28T11:58:34;14.70;31.02
584;HTU21D;27024;54.068;12.116;2023-02-28T12:04:10;15.27;29.47
584;HTU21D;27024;54.068;12.116;2023-02-28T12:07:00;14.85;30.95
584;HTU21D;27024;54.068;12.116;2023-02-28T12:09:45;15.08;29.61
584;HTU21D;27024;54.068;12.116;2023-02-28T12:12:33;13.97;32.10
584;HTU21D;27024;54.068;12.116;2023-02-28T12:28:43;13.43;33.05
584;HTU21D;27024;54.068;12.116;2023-02-28T12:31:24;13.27;33.15
584;HTU21D;27024;54.068;12.116;2023-02-28T12:33:54;12.78;35.42
584;HTU21D;27024;54.068;12.116;2023-02-28T12:36:22;12.86;36.12
584;HTU21D;27024;54.068;12.116;2023-02-28T12:38:55;13.26;33.80
584;HTU21D;27024;54.068;12.116;2023-02-28T12:41:41;12.48;35.53
584;HTU21D;27024;54.068;12.116;2023-02-28T12:44:23;12.22;37.73
584;HTU21D;27024;54.068;12.116;2023-02-28T12:46:56;12.90;35.96
584;HTU21D;27024;54.068;12.116;2023-02-28T12:49:39;11.98;37.67
584;HTU21D;27024;54.068;12.116;2023-02-28T12:52:10;12.79;35.17
584;HTU21D;27024;54.068;12.116;2023-02-28T12:54:46;12.36;35.83
584;HTU21D;27024;54.068;12.116;2023-02-28T13:00:13;12.12;38.52
584;HTU21D;27024;54.068;12.116;2023-02-28T13:02:49;12.02;37.22
584;HTU21D;27024;54.068;12.116;2023-02-28T13:05:36;11.75;39.04
584;HTU21D;27024;54.068;12.116;2023-02-28T13:10:54;12.27;39.42
584;HTU21D;27024;54.068;12.116;2023-02-28T13:13:24;12.12;39.82
584;HTU21D;27024;54.068;12.116;2023-02-28T13:16:04;11.67;40.16
584;HTU21D;27024;54.068;12.116;2023-02-28T13:21:04;12.11;41.29
584;HTU21D;27024;54.068;12.116;2023-02-28T13:26:14;12.36;41.16
584;HTU21D;27024;54.068;12.116;2023-02-28T13:29:03;12.14;40.75
584;HTU21D;27024;54.068;12.116;2023-02-28T13:31:31;12.27;40.84
584;HTU21D;27024;54.068;12.116;2023-02-28T13:34:15;11.48;43.10
584;HTU21D;27024;54.068;12.116;2023-02-28T13:36:42;11.72;41.70
584;HTU21D;27024;54.068;12.116;2023-02-28T13:47:42;12.15;41.54
584;HTU21D;27024;54.068;12.116;2023-02-28T13:53:28;12.47;39.91
584;HTU21D;27024;54.068;12.116;2023-02-28T13:56:25;12.36;39.81
584;HTU21D;27024;54.068;12.116;2023-02-28T13:59:12;12.37;40.26
584;HTU21D;27024;54.068;12.116;2023-02-28T14:05:06;12.64;39.20
584;HTU21D;27024;54.068;12.116;2023-02-28T14:07:43;12.88;38.98
584;HTU21D;27024;54.068;12.116;2023-02-28T14:12:59;13.07;38.43
584;HTU21D;27024;54.068;12.116;2023-02-28T14:18:01;13.54;37.85
584;HTU21D;27024;54.068;12.116;2023-02-28T14:20:31;13.45;37.56
584;HTU21D;27024;54.068;12.116;2023-02-28T14:23:10;13.11;38.27
584;HTU21D;27024;54.068;12.116;2023-02-28T14:31:37;13.18;37.23
584;HTU21D;27024;54.068;12.116;2023-02-28T14:36:36;11.84;40.29
584;HTU21D;27024;54.068;12.116;2023-02-28T14:39:20;12.26;39.91
584;HTU21D;27024;54.068;12.116;2023-02-28T14:41:48;12.43;38.74
584;HTU21D;27024;54.068;12.116;2023-02-28T14:44:26;12.18;40.22
584;HTU21D;27024;54.068;12.116;2023-02-28T14:47:01;11.98;40.42
584;HTU21D;27024;54.068;12.116;2023-02-28T14:49:43;12.21;39.74
584;HTU21D;27024;54.068;12.116;2023-02-28T14:52:23;12.20;39.84
584;HTU21D;27024;54.068;12.116;2023-02-28T14:54:56;12.15;40.12
584;HTU21D;27024;54.068;12.116;2023-02-28T14:57:32;12.01;40.67
584;HTU21D;27024;54.068;12.116;2023-02-28T15:02:48;11.41;42.39
584;HTU21D;27024;54.068;12.116;2023-02-28T15:07:46;10.80;44.73
584;HTU21D;27024;54.068;12.116;2023-02-28T15:12:53;9.90;48.77
584;HTU21D;27024;54.068;12.116;2023-02-28T15:18:48;9.32;50.77
584;HTU21D;27024;54.068;12.116;2023-02-28T15:21:43;9.01;51.77
584;HTU21D;27024;54.068;12.116;2023-02-28T15:24:30;8.90;52.27
584;HTU21D;27024;54.068;12.116;2023-02-28T15:27:04;8.68;54.04
584;HTU21D;27024;54.068;12.116;2023-02-28T15:29:42;8.32;56.42
584;HTU21D;27024;54.068;12.116;2023-02-28T15:34:52;8.16;58.85
584;HTU21D;27024;54.068;12.116;2023-02-28T15:40:14;7.81;61.84
584;HTU21D;27024;54.068;12.116;2023-02-28T15:42:42;7.67;62.06
584;HTU21D;27024;54.068;12.116;2023-02-28T15:48:09;7.37;64.67
584;HTU21D;27024;54.068;12.116;2023-02-28T15:50:40;7.27;65.53
584;HTU21D;27024;54.068;12.116;2023-02-28T15:53:13;7.32;65.38
584;HTU21D;27024;54.068;12.116;2023-02-28T15:55:41;7.20;66.19
584;HTU21D;27024;54.068;12.116;2023-02-28T15:58:11;7.08;66.38
584;HTU21D;27024;54.068;12.116;2023-02-28T16:00:43;7.05;66.21
584;HTU21D;27024;54.068;12.116;2023-02-28T16:03:26;7.01;66.79
584;HTU21D;27024;54.068;12.116;2023-02-28T16:08:49;6.86;67.10
584;HTU21D;27024;54.068;12.116;2023-02-28T16:11:19;6.81;67.68
584;HTU21D;27024;54.068;12.116;2023-02-28T16:13:46;6.69;67.84
584;HTU21D;27024;54.068;12.116;2023-02-28T16:16:21;6.59;68.71
584;HTU21D;27024;54.068;12.116;2023-02-28T16:18:49;6.49;69.25
584;HTU21D;27024;54.068;12.116;2023-02-28T16:21:16;6.38;70.41
584;HTU21D;27024;54.068;12.116;2023-02-28T16:23:43;6.33;71.69
584;HTU21D;27024;54.068;12.116;2023-02-28T16:26:19;6.27;72.97
584;HTU21D;27024;54.068;12.116;2023-02-28T16:28:47;6.15;74.09
584;HTU21D;27024;54.068;12.116;2023-02-28T16:31:14;6.11;73.54
584;HTU21D;27024;54.068;12.116;2023-02-28T16:33:44;6.09;72.81
584;HTU21D;27024;54.068;12.116;2023-02-28T16:36:18;5.97;73.87
584;HTU21D;27024;54.068;12.116;2023-02-28T16:38:45;5.93;74.54
584;HTU21D;27024;54.068;12.116;2023-02-28T16:41:16;5.83;73.98
584;HTU21D;27024;54.068;12.116;2023-02-28T16:43:50;5.74;74.13
584;HTU21D;27024;54.068;12.116;2023-02-28T16:46:18;5.67;74.60
584;HTU21D;27024;54.068;12.116;2023-02-28T16:48:46;5.57;74.86
584;HTU21D;27024;54.068;12.116;2023-02-28T16:51:18;5.50;75.28
584;HTU21D;27024;54.068;12.116;2023-02-28T16:53:46;5.38;75.44
584;HTU21D;27024;54.068;12.116;2023-02-28T16:56:19;5.31;76.60
584;HTU21D;27024;54.068;12.116;2023-02-28T16:58:47;5.42;81.14
584;HTU21D;27024;54.068;12.116;2023-02-28T17:01:16;5.23;78.95
584;HTU21D;27024;54.068;12.116;2023-02-28T17:03:43;5.12;80.35
584;HTU21D;27024;54.068;12.116;2023-02-28T17:06:25;5.06;80.14
584;HTU21D;27024;54.068;12.116;2023-02-28T17:08:56;4.83;82.16
584;HTU21D;27024;54.068;12.116;2023-02-28T17:11:24;4.69;82.87
584;HTU21D;27024;54.068;12.116;2023-02-28T17:13:52;4.57;84.45
584;HTU21D;27024;54.068;12.116;2023-02-28T17:16:32;4.43;85.32
584;HTU21D;27024;54.068;12.116;2023-02-28T17:19:03;4.39;85.40
584;HTU21D;27024;54.068;12.116;2023-02-28T17:21:31;4.39;87.06
584;HTU21D;27024;54.068;12.116;2023-02-28T17:23:59;4.18;87.46
584;HTU21D;27024;54.068;12.116;2023-02-28T17:26:27;4.01;88.19
584;HTU21D;27024;54.068;12.116;2023-02-28T17:28:56;3.89;89.01
584;HTU21D;27024;54.068;12.116;2023-02-28T17:31:24;3.80;89.39
584;HTU21D;27024;54.068;12.116;2023-02-28T17:33:52;3.77;89.05
584;HTU21D;27024;54.068;12.116;2023-02-28T17:36:24;3.65;90.04
584;HTU21D;27024;54.068;12.116;2023-02-28T17:38:53;3.60;90.18
584;HTU21D;27024;54.068;12.116;2023-02-28T17:41:22;3.61;89.86
584;HTU21D;27024;54.068;12.116;2023-02-28T17:43:49;3.47;90.57
584;HTU21D;27024;54.068;12.116;2023-02-28T17:46:23;3.41;90.88
584;HTU21D;27024;54.068;12.116;2023-02-28T17:48:52;3.35;91.72
584;HTU21D;27024;54.068;12.116;2023-02-28T17:51:20;3.38;91.64
584;HTU21D;27024;54.068;12.116;2023-02-28T17:53:47;3.21;92.41
584;HTU21D;27024;54.068;12.116;2023-02-28T17:56:18;3.24;92.30
584;HTU21D;27024;54.068;12.116;2023-02-28T17:58:46;3.08;92.96
584;HTU21D;27024;54.068;12.116;2023-02-28T18:01:13;3.04;93.62
584;HTU21D;27024;54.068;12.116;2023-02-28T18:03:41;2.93;94.59
584;HTU21D;27024;54.068;12.116;2023-02-28T18:06:14;2.73;95.35
584;HTU21D;27024;54.068;12.116;2023-02-28T18:08:42;2.64;95.61
584;HTU21D;27024;54.068;12.116;2023-02-28T18:11:09;2.51;96.20
584;HTU21D;27024;54.068;12.116;2023-02-28T18:13:45;2.42;96.90